This is the latest recevied weather packets stored in our database for station/object K3RTA. If no packets are shown the sender has not sent any weather packets the latest 10 day(s).
| Time | Temp. | Humidity | Pressure | Rain* | Wind** | Luminosity | Snow |
|---|---|---|---|---|---|---|---|
| 1777782608 | 9.44° C | 59% | 1010.9 hPa | 0 mm | - | - | - |
| 1777779008 | 10.56° C | 56% | 1011.2 hPa | 0 mm | - | - | - |
| 1777778407 | 10.56° C | 55% | 1011.2 hPa | 0 mm | - | - | - |
| 1777774207 | 11.11° C | 52% | 1011.2 hPa | 0 mm | - | - | - |
| 1777773607 | 11.11° C | 51% | 1011.3 hPa | 0 mm | - | - | - |
| 1777767008 | 12.78° C | 45% | 1010.3 hPa | 0 mm | - | - | - |
| 1777764608 | 13.89° C | 41% | 1010 hPa | 0 mm | - | - | - |
| 1777760407 | 16.11° C | 36% | 1009.9 hPa | 0 mm | - | - | - |
| 1777759807 | 16.11° C | 36% | 1009.8 hPa | 0 mm | - | - | - |
| 1777757407 | 15.56° C | 36% | 1009.7 hPa | 0 mm | - | - | - |
| 1777747807 | 15° C | 41% | 1010.7 hPa | 0 mm | - | - | - |
| 1777745407 | 15.56° C | 41% | 1011.1 hPa | 0 mm | - | - | - |
| 1777740008 | 15° C | 42% | 1011.5 hPa | 0 mm | - | - | - |
| 1777738207 | 13.89° C | 47% | 1011.9 hPa | 0 mm | - | - | - |
| 1777737607 | 13.89° C | 48% | 1012.1 hPa | 0 mm | - | - | - |
| 1777730407 | 10.56° C | 71% | 1012 hPa | 0 mm | - | - | - |
| 1777725607 | 10.56° C | 71% | 1012.2 hPa | 0 mm | - | - | - |
| 1777719607 | 10° C | 75% | 1011.7 hPa | 0 mm | - | - | - |
| 1777719007 | 10° C | 76% | 1011.6 hPa | 0 mm | - | - | - |
| 1777715407 | 10.56° C | 76% | 1010.8 hPa | 0 mm | - | - | - |
| 1777714207 | 10.56° C | 82% | 1010.7 hPa | 0 mm | - | - | - |
| 1777713007 | 10° C | 85% | 1010.9 hPa | 0 mm | - | - | - |
| 1777712407 | 10° C | 85% | 1010.8 hPa | 0 mm | - | - | - |
| 1777706407 | 11.11° C | 79% | 1010.5 hPa | 0 mm | - | - | - |
| 1777698607 | 11.11° C | 78% | 1011.4 hPa | 0 mm | - | - | - |
* Rain latest hour (hover to see other rain measurements)
** Current wind speed in m/s (hover to see current wind gust speed)